Time,TemperatureF,DewpointF,PressureIn,WindDirection,WindDirectionDegrees,WindSpeedMPH,WindSpeedGustMPH,Humidity,HourlyPrecipIn,Conditions,Clouds,dailyrainin,SoftwareType,DateUTC
2013-06-01 00:01:00,47.0,39.0,-100.00,NNW,345,14.0,18.0,73,-99.99,,,-99.99,,2013-06-01 06:01:00,
2013-06-01 00:12:00,47.0,39.0,-100.00,NNW,345,14.0,18.0,73,-99.99,,,-99.99,,2013-06-01 06:12:00,
2013-06-01 00:22:00,47.0,39.0,-100.00,NNW,345,13.0,21.0,74,-99.99,,,-99.99,,2013-06-01 06:22:00,
2013-06-01 00:32:00,47.0,39.0,-100.00,NNW,340,11.0,16.0,74,-99.99,,,-99.99,,2013-06-01 06:32:00,
2013-06-01 00:42:00,47.0,39.0,-100.00,NNW,340,11.0,16.0,74,-99.99,,,-99.99,,2013-06-01 06:42:00,
2013-06-01 00:52:00,46.0,39.0,-100.00,NNW,340,9.0,16.0,74,-99.99,,,-99.99,,2013-06-01 06:52:00,
2013-06-01 01:01:00,46.0,39.0,-100.00,NW,315,7.0,11.0,74,-99.99,,,-99.99,,2013-06-01 07:01:00,
2013-06-01 01:11:00,46.0,39.0,-100.00,NW,315,7.0,11.0,74,-99.99,,,-99.99,,2013-06-01 07:11:00,
2013-06-01 01:22:00,46.0,39.0,-100.00,WNW,300,10.0,12.0,74,-99.99,,,-99.99,,2013-06-01 07:22:00,
2013-06-01 01:32:00,46.0,38.0,-100.00,NW,320,12.0,15.0,73,-99.99,,,-99.99,,2013-06-01 07:32:00,
2013-06-01 01:42:00,46.0,38.0,-100.00,NW,320,12.0,15.0,73,-99.99,,,-99.99,,2013-06-01 07:42:00,
2013-06-01 01:52:00,46.0,38.0,-100.00,NW,315,11.0,14.0,74,-99.99,,,-99.99,,2013-06-01 07:52:00,
2013-06-01 02:02:00,45.0,38.0,-100.00,NW,320,12.0,15.0,74,-99.99,,,-99.99,,2013-06-01 08:02:00,
2013-06-01 02:11:00,45.0,38.0,-100.00,NW,320,12.0,15.0,74,-99.99,,,-99.99,,2013-06-01 08:11:00,
2013-06-01 02:21:00,46.0,38.0,-100.00,NW,310,13.0,16.0,74,-99.99,,,-99.99,,2013-06-01 08:21:00,
2013-06-01 02:32:00,46.0,37.0,-100.00,NW,315,12.0,16.0,71,-99.99,,,-99.99,,2013-06-01 08:32:00,
2013-06-01 02:42:00,46.0,37.0,-100.00,NW,315,12.0,16.0,71,-99.99,,,-99.99,,2013-06-01 08:42:00,
2013-06-01 02:52:00,46.0,37.0,-100.00,NNW,330,12.0,17.0,69,-99.99,,,-99.99,,2013-06-01 08:52:00,
2013-06-01 03:01:00,46.0,36.0,-100.00,NW,315,10.0,13.0,69,-99.99,,,-99.99,,2013-06-01 09:01:00,
2013-06-01 03:12:00,46.0,36.0,-100.00,NW,315,10.0,13.0,69,-99.99,,,-99.99,,2013-06-01 09:12:00,
2013-06-01 03:21:00,46.0,36.0,-100.00,NW,320,11.0,15.0,67,-99.99,,,-99.99,,2013-06-01 09:21:00,
2013-06-01 03:33:00,46.0,36.0,-100.00,NW,305,11.0,14.0,67,-99.99,,,-99.99,,2013-06-01 09:33:00,
2013-06-01 03:42:00,46.0,36.0,-100.00,NW,305,11.0,14.0,67,-99.99,,,-99.99,,2013-06-01 09:42:00,
2013-06-01 03:53:00,46.0,36.0,-100.00,NW,315,13.0,17.0,66,-99.99,,,-99.99,,2013-06-01 09:53:00,
2013-06-01 04:02:00,46.0,35.0,-100.00,NNW,335,12.0,17.0,66,-99.99,,,-99.99,,2013-06-01 10:02:00,
2013-06-01 04:13:00,46.0,35.0,-100.00,NNW,335,12.0,17.0,66,-99.99,,,-99.99,,2013-06-01 10:13:00,
2013-06-01 04:22:00,45.0,35.0,-100.00,NW,325,9.0,15.0,67,-99.99,,,-99.99,,2013-06-01 10:22:00,
2013-06-01 04:33:00,44.0,35.0,-100.00,NW,320,10.0,12.0,70,-99.99,,,-99.99,,2013-06-01 10:33:00,
2013-06-01 04:42:00,44.0,35.0,-100.00,NW,320,10.0,12.0,70,-99.99,,,-99.99,,2013-06-01 10:42:00,
2013-06-01 04:52:00,44.0,35.0,-100.00,NW,320,10.0,12.0,70,-99.99,,,-99.99,,2013-06-01 10:52:00,
2013-06-01 05:02:00,44.0,34.0,-100.00,NW,320,9.0,12.0,69,-99.99,,,-99.99,,2013-06-01 11:02:00,
2013-06-01 05:11:00,44.0,34.0,-100.00,NW,320,9.0,12.0,69,-99.99,,,-99.99,,2013-06-01 11:11:00,
2013-06-01 05:21:00,43.0,34.0,-100.00,NW,320,9.0,12.0,69,-99.99,,,-99.99,,2013-06-01 11:21:00,
2013-06-01 05:32:00,43.0,34.0,-100.00,NW,310,8.0,12.0,70,-99.99,,,-99.99,,2013-06-01 11:32:00,
2013-06-01 05:42:00,43.0,34.0,-100.00,NW,310,8.0,12.0,70,-99.99,,,-99.99,,2013-06-01 11:42:00,
2013-06-01 05:52:00,43.0,34.0,-100.00,NW,305,7.0,10.0,71,-99.99,,,-99.99,,2013-06-01 11:52:00,
2013-06-01 06:01:00,44.0,34.0,-100.00,NW,315,9.0,12.0,69,-99.99,,,-99.99,,2013-06-01 12:01:00,
2013-06-01 06:12:00,44.0,34.0,-100.00,NW,315,9.0,12.0,69,-99.99,,,-99.99,,2013-06-01 12:12:00,
2013-06-01 06:21:00,44.0,34.0,-100.00,NW,315,6.0,12.0,69,-99.99,,,-99.99,,2013-06-01 12:21:00,
2013-06-01 06:32:00,44.0,34.0,-100.00,NW,315,12.0,14.0,70,-99.99,,,-99.99,,2013-06-01 12:32:00,
2013-06-01 06:42:00,44.0,34.0,-100.00,NW,315,12.0,14.0,70,-99.99,,,-99.99,,2013-06-01 12:42:00,
2013-06-01 06:52:00,44.0,35.0,-100.00,NW,305,9.0,14.0,70,-99.99,,,-99.99,,2013-06-01 12:52:00,
2013-06-01 07:01:00,43.0,35.0,-100.00,NW,305,11.0,13.0,71,-99.99,,,-99.99,,2013-06-01 13:01:00,
2013-06-01 07:11:00,43.0,35.0,-100.00,NW,305,11.0,13.0,71,-99.99,,,-99.99,,2013-06-01 13:11:00,
2013-06-01 07:22:00,43.0,34.0,-100.00,NW,325,10.0,14.0,69,-99.99,,,-99.99,,2013-06-01 13:22:00,
2013-06-01 07:32:00,45.0,35.0,-100.00,NW,305,9.0,14.0,67,-99.99,,,-99.99,,2013-06-01 13:32:00,
2013-06-01 07:42:00,45.0,35.0,-100.00,NW,305,9.0,14.0,67,-99.99,,,-99.99,,2013-06-01 13:42:00,
2013-06-01 07:52:00,45.0,34.0,-100.00,NW,315,11.0,16.0,66,-99.99,,,-99.99,,2013-06-01 13:52:00,
2013-06-01 08:02:00,45.0,35.0,-100.00,NW,325,12.0,16.0,65,-99.99,,,-99.99,,2013-06-01 14:02:00,
2013-06-01 08:11:00,45.0,35.0,-100.00,NW,325,12.0,16.0,65,-99.99,,,-99.99,,2013-06-01 14:11:00,
2013-06-01 08:21:00,46.0,34.0,-100.00,NNW,330,14.0,17.0,62,-99.99,,,-99.99,,2013-06-01 14:21:00,
2013-06-01 08:32:00,47.0,35.0,-100.00,NNW,330,14.0,18.0,60,-99.99,,,-99.99,,2013-06-01 14:32:00,
2013-06-01 08:42:00,47.0,35.0,-100.00,NNW,330,14.0,18.0,60,-99.99,,,-99.99,,2013-06-01 14:42:00,
2013-06-01 08:52:00,47.0,35.0,-100.00,NW,320,15.0,19.0,60,-99.99,,,-99.99,,2013-06-01 14:52:00,
2013-06-01 09:02:00,49.0,35.0,-100.00,NW,310,14.0,18.0,58,-99.99,,,-99.99,,2013-06-01 15:02:00,
2013-06-01 09:11:00,49.0,35.0,-100.00,NW,310,14.0,18.0,58,-99.99,,,-99.99,,2013-06-01 15:11:00,
2013-06-01 09:21:00,49.0,34.0,-100.00,NNW,335,14.0,20.0,55,-99.99,,,-99.99,,2013-06-01 15:21:00,
2013-06-01 09:33:00,50.0,32.0,-100.00,NW,315,14.0,22.0,50,-99.99,,,-99.99,,2013-06-01 15:33:00,
2013-06-01 09:43:00,50.0,32.0,-100.00,NW,315,14.0,22.0,50,-99.99,,,-99.99,,2013-06-01 15:43:00,
2013-06-01 09:53:00,51.0,33.0,-100.00,NW,320,14.0,18.0,50,-99.99,,,-99.99,,2013-06-01 15:53:00,
2013-06-01 10:03:00,51.0,33.0,-100.00,NW,325,13.0,21.0,49,-99.99,,,-99.99,,2013-06-01 16:03:00,
2013-06-01 10:12:00,51.0,33.0,-100.00,NW,325,13.0,21.0,49,-99.99,,,-99.99,,2013-06-01 16:12:00,
2013-06-01 10:23:00,52.0,33.0,-100.00,NW,315,11.0,19.0,48,-99.99,,,-99.99,,2013-06-01 16:23:00,
2013-06-01 10:33:00,52.0,33.0,-100.00,NNW,330,11.0,17.0,47,-99.99,,,-99.99,,2013-06-01 16:33:00,
2013-06-01 10:42:00,52.0,33.0,-100.00,NNW,330,11.0,17.0,47,-99.99,,,-99.99,,2013-06-01 16:42:00,
2013-06-01 10:52:00,53.0,33.0,-100.00,NNW,335,13.0,19.0,47,-99.99,,,-99.99,,2013-06-01 16:52:00,
2013-06-01 11:02:00,54.0,33.0,-100.00,NW,315,12.0,17.0,45,-99.99,,,-99.99,,2013-06-01 17:02:00,
2013-06-01 11:12:00,54.0,33.0,-100.00,NW,315,12.0,17.0,45,-99.99,,,-99.99,,2013-06-01 17:12:00,
2013-06-01 11:22:00,54.0,33.0,-100.00,NW,315,12.0,17.0,45,-99.99,,,-99.99,,2013-06-01 17:22:00,
2013-06-01 11:32:00,55.0,33.0,-100.00,North,0,16.0,21.0,42,-99.99,,,-99.99,,2013-06-01 17:32:00,
2013-06-01 11:42:00,55.0,33.0,-100.00,North,0,16.0,21.0,42,-99.99,,,-99.99,,2013-06-01 17:42:00,
2013-06-01 11:52:00,55.0,32.0,-100.00,NNW,335,12.0,17.0,40,-99.99,,,-99.99,,2013-06-01 17:52:00,
2013-06-01 12:01:00,56.0,31.0,-100.00,North,350,16.0,20.0,37,-99.99,,,-99.99,,2013-06-01 18:01:00,
2013-06-01 12:12:00,56.0,31.0,-100.00,North,350,16.0,20.0,37,-99.99,,,-99.99,,2013-06-01 18:12:00,
2013-06-01 12:22:00,55.0,30.0,-100.00,North,350,9.0,18.0,37,-99.99,,,-99.99,,2013-06-01 18:22:00,
2013-06-01 12:32:00,55.0,29.0,-100.00,North,355,12.0,19.0,36,-99.99,,,-99.99,,2013-06-01 18:32:00,
2013-06-01 12:42:00,55.0,29.0,-100.00,North,355,12.0,19.0,36,-99.99,,,-99.99,,2013-06-01 18:42:00,
2013-06-01 12:51:00,57.0,30.0,-100.00,NNW,345,17.0,19.0,35,-99.99,,,-99.99,,2013-06-01 18:51:00,
2013-06-01 13:02:00,57.0,31.0,-100.00,North,0,13.0,17.0,36,-99.99,,,-99.99,,2013-06-01 19:02:00,
2013-06-01 13:11:00,57.0,31.0,-100.00,North,0,13.0,17.0,36,-99.99,,,-99.99,,2013-06-01 19:11:00,
2013-06-01 13:21:00,57.0,31.0,-100.00,North,0,7.0,14.0,35,-99.99,,,-99.99,,2013-06-01 19:21:00,
2013-06-01 13:32:00,57.0,29.0,-100.00,NW,320,11.0,17.0,34,-99.99,,,-99.99,,2013-06-01 19:32:00,
2013-06-01 13:42:00,57.0,29.0,-100.00,NW,320,11.0,17.0,34,-99.99,,,-99.99,,2013-06-01 19:42:00,
2013-06-01 13:52:00,58.0,31.0,-100.00,NW,325,6.0,14.0,35,-99.99,,,-99.99,,2013-06-01 19:52:00,
2013-06-01 14:02:00,59.0,31.0,-100.00,North,0,10.0,18.0,34,-99.99,,,-99.99,,2013-06-01 20:02:00,
2013-06-01 14:12:00,59.0,31.0,-100.00,North,0,10.0,18.0,34,-99.99,,,-99.99,,2013-06-01 20:12:00,
2013-06-01 14:21:00,58.0,31.0,-100.00,NW,310,8.0,14.0,35,-99.99,,,-99.99,,2013-06-01 20:21:00,
2013-06-01 14:32:00,59.0,31.0,-100.00,North,350,11.0,16.0,34,-99.99,,,-99.99,,2013-06-01 20:32:00,
2013-06-01 14:42:00,59.0,31.0,-100.00,North,350,11.0,16.0,34,-99.99,,,-99.99,,2013-06-01 20:42:00,
2013-06-01 14:52:00,58.0,29.0,-100.00,North,350,12.0,15.0,33,-99.99,,,-99.99,,2013-06-01 20:52:00,
2013-06-01 15:01:00,59.0,31.0,-100.00,NNW,345,6.0,15.0,33,-99.99,,,-99.99,,2013-06-01 21:01:00,
2013-06-01 15:11:00,59.0,31.0,-100.00,NNW,345,6.0,15.0,33,-99.99,,,-99.99,,2013-06-01 21:11:00,
2013-06-01 15:21:00,59.0,29.0,-100.00,North,350,13.0,17.0,32,-99.99,,,-99.99,,2013-06-01 21:21:00,
2013-06-01 15:33:00,59.0,30.0,-100.00,NNW,340,7.0,14.0,33,-99.99,,,-99.99,,2013-06-01 21:33:00,
2013-06-01 15:42:00,59.0,30.0,-100.00,NNW,340,7.0,14.0,33,-99.99,,,-99.99,,2013-06-01 21:42:00,
2013-06-01 15:53:00,59.0,30.0,-100.00,NNW,330,9.0,15.0,33,-99.99,,,-99.99,,2013-06-01 21:53:00,
2013-06-01 16:03:00,60.0,31.0,-100.00,North,355,8.0,16.0,32,-99.99,,,-99.99,,2013-06-01 22:03:00,
2013-06-01 16:12:00,60.0,31.0,-100.00,North,355,8.0,16.0,32,-99.99,,,-99.99,,2013-06-01 22:12:00,
2013-06-01 16:23:00,60.0,30.0,-100.00,North,355,6.0,15.0,32,-99.99,,,-99.99,,2013-06-01 22:23:00,
2013-06-01 16:33:00,60.0,29.0,-100.00,North,0,10.0,13.0,30,-99.99,,,-99.99,,2013-06-01 22:33:00,
2013-06-01 16:42:00,60.0,29.0,-100.00,North,0,10.0,13.0,30,-99.99,,,-99.99,,2013-06-01 22:42:00,
2013-06-01 16:53:00,60.0,29.0,-100.00,NW,315,6.0,14.0,30,-99.99,,,-99.99,,2013-06-01 22:53:00,
2013-06-01 17:02:00,61.0,31.0,-100.00,North,350,7.0,12.0,31,-99.99,,,-99.99,,2013-06-01 23:02:00,
2013-06-01 17:11:00,61.0,31.0,-100.00,North,350,7.0,12.0,31,-99.99,,,-99.99,,2013-06-01 23:11:00,
2013-06-01 17:22:00,60.0,30.0,-100.00,NNW,330,7.0,13.0,31,-99.99,,,-99.99,,2013-06-01 23:22:00,
2013-06-01 17:32:00,60.0,30.0,-100.00,North,0,6.0,11.0,31,-99.99,,,-99.99,,2013-06-01 23:32:00,
2013-06-01 17:42:00,60.0,30.0,-100.00,North,0,6.0,11.0,31,-99.99,,,-99.99,,2013-06-01 23:42:00,
2013-06-01 17:52:00,60.0,29.0,-100.00,NW,325,7.0,12.0,30,-99.99,,,-99.99,,2013-06-01 23:52:00,
2013-06-01 18:02:00,60.0,31.0,-100.00,North,0,6.0,8.0,33,-99.99,,,-99.99,,2013-06-02 00:02:00,
2013-06-01 18:11:00,60.0,31.0,-100.00,North,0,6.0,8.0,33,-99.99,,,-99.99,,2013-06-02 00:11:00,
2013-06-01 18:21:00,59.0,31.0,-100.00,North,0,6.0,9.0,33,-99.99,,,-99.99,,2013-06-02 00:21:00,
2013-06-01 18:32:00,60.0,30.0,-100.00,North,0,7.0,11.0,33,-99.99,,,-99.99,,2013-06-02 00:32:00,
2013-06-01 18:42:00,60.0,30.0,-100.00,North,0,7.0,11.0,33,-99.99,,,-99.99,,2013-06-02 00:42:00,
2013-06-01 18:51:00,60.0,29.0,-100.00,North,350,9.0,11.0,31,-99.99,,,-99.99,,2013-06-02 00:51:00,
2013-06-01 19:01:00,60.0,29.0,-100.00,NNW,335,7.0,10.0,30,-99.99,,,-99.99,,2013-06-02 01:01:00,
2013-06-01 19:11:00,60.0,29.0,-100.00,NNW,335,7.0,10.0,30,-99.99,,,-99.99,,2013-06-02 01:11:00,
2013-06-01 19:21:00,60.0,29.0,-100.00,NNE,15,6.0,7.0,31,-99.99,,,-99.99,,2013-06-02 01:21:00,
2013-06-01 19:32:00,60.0,30.0,-100.00,NNE,15,6.0,7.0,32,-99.99,,,-99.99,,2013-06-02 01:32:00,
2013-06-01 19:42:00,60.0,30.0,-100.00,NNE,15,6.0,7.0,32,-99.99,,,-99.99,,2013-06-02 01:42:00,
2013-06-01 19:52:00,60.0,30.0,-100.00,NNE,20,6.0,6.0,32,-99.99,,,-99.99,,2013-06-02 01:52:00,
2013-06-01 20:01:00,58.0,30.0,-100.00,NE,35,4.0,6.0,34,-99.99,,,-99.99,,2013-06-02 02:01:00,
2013-06-01 20:12:00,58.0,30.0,-100.00,NE,35,4.0,6.0,34,-99.99,,,-99.99,,2013-06-02 02:12:00,
2013-06-01 20:21:00,59.0,31.0,-100.00,ENE,60,3.0,4.0,33,-99.99,,,-99.99,,2013-06-02 02:21:00,
2013-06-01 20:32:00,56.0,32.0,-100.00,NNW,345,5.0,6.0,39,-99.99,,,-99.99,,2013-06-02 02:32:00,
2013-06-01 20:42:00,56.0,32.0,-100.00,NNW,345,5.0,6.0,39,-99.99,,,-99.99,,2013-06-02 02:42:00,
2013-06-01 20:52:00,56.0,32.0,-100.00,NNW,335,6.0,7.0,40,-99.99,,,-99.99,,2013-06-02 02:52:00,
2013-06-01 21:02:00,53.0,32.0,-100.00,NNW,335,7.0,8.0,44,-99.99,,,-99.99,,2013-06-02 03:02:00,
2013-06-01 21:11:00,53.0,32.0,-100.00,NNW,335,7.0,8.0,44,-99.99,,,-99.99,,2013-06-02 03:11:00,
2013-06-01 21:21:00,51.0,33.0,-100.00,North,355,5.0,7.0,49,-99.99,,,-99.99,,2013-06-02 03:21:00,
2013-06-01 21:33:00,51.0,33.0,-100.00,North,350,4.0,5.0,51,-99.99,,,-99.99,,2013-06-02 03:33:00,
2013-06-01 21:43:00,51.0,33.0,-100.00,North,350,4.0,5.0,51,-99.99,,,-99.99,,2013-06-02 03:43:00,
2013-06-01 21:52:00,50.0,33.0,-100.00,North,350,4.0,4.0,51,-99.99,,,-99.99,,2013-06-02 03:52:00,
2013-06-01 22:02:00,47.0,-99.9,-100.00,North,0,1.0,4.0,57,-99.99,,,-99.99,,2013-06-02 04:02:00,
2013-06-01 22:13:00,47.0,33.0,-100.00,North,0,1.0,4.0,57,-99.99,,,-99.99,,2013-06-02 04:13:00,
2013-06-01 22:23:00,46.0,34.0,-100.00,NW,315,1.0,2.0,61,-99.99,,,-99.99,,2013-06-02 04:23:00,
2013-06-01 22:33:00,47.0,35.0,-100.00,NW,315,0.0,0.0,62,-99.99,,,-99.99,,2013-06-02 04:33:00,
2013-06-01 22:42:00,47.0,35.0,-100.00,NW,315,0.0,0.0,62,-99.99,,,-99.99,,2013-06-02 04:42:00,
2013-06-01 22:52:00,46.0,35.0,-100.00,SW,220,0.0,0.0,64,-99.99,,,-99.99,,2013-06-02 04:52:00,
2013-06-01 23:02:00,46.0,35.0,-100.00,WSW,255,0.0,1.0,66,-99.99,,,-99.99,,2013-06-02 05:02:00,
2013-06-01 23:12:00,46.0,35.0,-100.00,WSW,255,0.0,1.0,66,-99.99,,,-99.99,,2013-06-02 05:12:00,
2013-06-01 23:22:00,44.0,35.0,-100.00,NW,320,0.0,0.0,68,-99.99,,,-99.99,,2013-06-02 05:22:00,
2013-06-01 23:32:00,43.0,35.0,-100.00,East,100,1.0,1.0,71,-99.99,,,-99.99,,2013-06-02 05:32:00,
2013-06-01 23:42:00,43.0,35.0,-100.00,East,100,1.0,1.0,71,-99.99,,,-99.99,,2013-06-02 05:42:00,
2013-06-01 23:52:00,44.0,35.0,-100.00,WSW,240,0.0,1.0,71,-99.99,,,-99.99,,2013-06-02 05:52:00,